Time,TemperatureF,DewpointF,PressureIn,WindDirection,WindDirectionDegrees,WindSpeedMPH,WindSpeedGustMPH,Humidity,HourlyPrecipIn,Conditions,Clouds,dailyrainin,SolarRadiationWatts/m^2,SoftwareType,DateUTC
2013-05-19 00:00:00,49.0,43.0,-100.00,ESE,112,1.0,-999.0,79,-99.99,,,-99.99,0.000000,,2013-05-19 05:00:00,
2013-05-19 00:42:00,49.0,43.0,-100.00,ESE,112,1.0,-999.0,79,-99.99,,,-99.99,0.000000,,2013-05-19 05:42:00,
2013-05-19 00:52:00,49.0,43.0,-100.00,ESE,112,1.0,-999.0,79,-99.99,,,-99.99,0.000000,,2013-05-19 05:52:00,
2013-05-19 01:00:00,50.0,44.0,-100.00,ESE,112,1.0,-999.0,81,-99.99,,,-99.99,0.000000,,2013-05-19 06:00:00,
2013-05-19 01:42:00,50.0,44.0,-100.00,ESE,112,1.0,-999.0,81,-99.99,,,-99.99,0.000000,,2013-05-19 06:42:00,
2013-05-19 01:52:00,50.0,44.0,-100.00,ESE,112,1.0,-999.0,81,-99.99,,,-99.99,0.000000,,2013-05-19 06:52:00,
2013-05-19 02:00:00,49.0,44.0,-100.00,ESE,112,1.0,-999.0,80,-99.99,,,-99.99,0.000000,,2013-05-19 07:00:00,
2013-05-19 02:42:00,49.0,44.0,-100.00,ESE,112,1.0,-999.0,80,-99.99,,,-99.99,0.000000,,2013-05-19 07:42:00,
2013-05-19 02:52:00,49.0,44.0,-100.00,ESE,112,1.0,-999.0,80,-99.99,,,-99.99,0.000000,,2013-05-19 07:52:00,
2013-05-19 03:00:00,50.0,44.0,-100.00,ESE,112,1.0,-999.0,77,-99.99,,,-99.99,0.000000,,2013-05-19 08:00:00,
2013-05-19 03:42:00,50.0,44.0,-100.00,ESE,112,1.0,-999.0,77,-99.99,,,-99.99,0.000000,,2013-05-19 08:42:00,
2013-05-19 03:52:00,50.0,44.0,-100.00,ESE,112,1.0,-999.0,77,-99.99,,,-99.99,0.000000,,2013-05-19 08:52:00,
2013-05-19 04:00:00,50.0,44.0,-100.00,ESE,112,1.0,-999.0,79,-99.99,,,-99.99,0.000000,,2013-05-19 09:00:00,
2013-05-19 04:43:00,50.0,44.0,-100.00,ESE,112,1.0,-999.0,79,-99.99,,,-99.99,0.000000,,2013-05-19 09:43:00,
2013-05-19 04:53:00,50.0,44.0,-100.00,ESE,112,1.0,-999.0,79,-99.99,,,-99.99,0.000000,,2013-05-19 09:53:00,
2013-05-19 05:00:00,52.0,45.0,-100.00,SSE,157,2.0,-999.0,79,-99.99,,,-99.99,0.000000,,2013-05-19 10:00:00,
2013-05-19 05:42:00,52.0,45.0,-100.00,SSE,157,2.0,-999.0,79,-99.99,,,-99.99,0.000000,,2013-05-19 10:42:00,
2013-05-19 05:53:00,52.0,45.0,-100.00,SSE,157,2.0,-999.0,79,-99.99,,,-99.99,0.000000,,2013-05-19 10:53:00,
2013-05-19 07:00:00,56.0,49.0,-100.00,South,180,4.0,-999.0,76,-99.99,,,-99.99,85.839996,,2013-05-19 12:00:00,
2013-05-19 07:42:00,56.0,49.0,-100.00,South,180,4.0,-999.0,76,-99.99,,,-99.99,85.839996,,2013-05-19 12:42:00,
2013-05-19 07:52:00,56.0,49.0,-100.00,South,180,4.0,-999.0,76,-99.99,,,-99.99,85.839996,,2013-05-19 12:52:00,
2013-05-19 08:00:00,61.0,51.0,-100.00,SSW,202,7.0,-999.0,68,-99.99,,,-99.99,264.480011,,2013-05-19 13:00:00,
2013-05-19 08:42:00,61.0,51.0,-100.00,SSW,202,7.0,-999.0,68,-99.99,,,-99.99,264.480011,,2013-05-19 13:42:00,
2013-05-19 08:52:00,61.0,51.0,-100.00,SSW,202,7.0,-999.0,68,-99.99,,,-99.99,264.480011,,2013-05-19 13:52:00,
2013-05-19 09:00:00,66.0,54.0,-100.00,SSW,202,6.0,-999.0,63,-99.99,,,-99.99,422.239990,,2013-05-19 14:00:00,
2013-05-19 09:42:00,66.0,54.0,-100.00,SSW,202,6.0,-999.0,63,-99.99,,,-99.99,422.239990,,2013-05-19 14:42:00,
2013-05-19 09:52:00,66.0,54.0,-100.00,SSW,202,6.0,-999.0,63,-99.99,,,-99.99,422.239990,,2013-05-19 14:52:00,
2013-05-19 10:00:00,69.0,56.0,-100.00,South,180,5.0,-999.0,62,-99.99,,,-99.99,581.159973,,2013-05-19 15:00:00,
2013-05-19 10:43:00,69.0,56.0,-100.00,South,180,5.0,-999.0,62,-99.99,,,-99.99,581.159973,,2013-05-19 15:43:00,
2013-05-19 10:53:00,69.0,56.0,-100.00,South,180,5.0,-999.0,62,-99.99,,,-99.99,581.159973,,2013-05-19 15:53:00,
2013-05-19 11:00:00,72.0,58.0,-100.00,SSW,202,7.0,-999.0,61,-99.99,,,-99.99,692.520020,,2013-05-19 16:00:00,
2013-05-19 11:42:00,72.0,58.0,-100.00,SSW,202,7.0,-999.0,61,-99.99,,,-99.99,692.520020,,2013-05-19 16:42:00,
2013-05-19 11:52:00,72.0,58.0,-100.00,SSW,202,7.0,-999.0,61,-99.99,,,-99.99,692.520020,,2013-05-19 16:52:00,
2013-05-19 12:00:00,74.0,59.0,-100.00,SSE,157,7.0,-999.0,59,-99.99,,,-99.99,800.400024,,2013-05-19 17:00:00,
2013-05-19 12:43:00,74.0,59.0,-100.00,SSE,157,7.0,-999.0,59,-99.99,,,-99.99,800.400024,,2013-05-19 17:43:00,
2013-05-19 12:52:00,74.0,59.0,-100.00,SSE,157,7.0,-999.0,59,-99.99,,,-99.99,800.400024,,2013-05-19 17:52:00,
2013-05-19 13:00:00,73.0,58.0,-100.00,SSE,157,7.0,-999.0,60,-99.99,,,-99.99,773.719971,,2013-05-19 18:00:00,
2013-05-19 13:43:00,73.0,58.0,-100.00,SSE,157,7.0,-999.0,60,-99.99,,,-99.99,773.719971,,2013-05-19 18:43:00,
2013-05-19 13:53:00,73.0,58.0,-100.00,SSE,157,7.0,-999.0,60,-99.99,,,-99.99,773.719971,,2013-05-19 18:53:00,
2013-05-19 14:00:00,69.0,58.0,-100.00,SSE,157,8.0,-999.0,67,-99.99,,,-99.99,555.640015,,2013-05-19 19:00:00,
2013-05-19 14:42:00,69.0,58.0,-100.00,SSE,157,8.0,-999.0,67,-99.99,,,-99.99,555.640015,,2013-05-19 19:42:00,
2013-05-19 14:52:00,69.0,58.0,-100.00,SSE,157,8.0,-999.0,67,-99.99,,,-99.99,555.640015,,2013-05-19 19:52:00,
2013-05-19 15:00:00,64.0,55.0,-100.00,SE,135,8.0,-999.0,72,-99.99,,,-99.99,528.960022,,2013-05-19 20:00:00,
2013-05-19 15:42:00,64.0,55.0,-100.00,SE,135,8.0,-999.0,72,-99.99,,,-99.99,528.960022,,2013-05-19 20:42:00,
2013-05-19 15:52:00,64.0,55.0,-100.00,SE,135,8.0,-999.0,72,-99.99,,,-99.99,528.960022,,2013-05-19 20:52:00,
2013-05-19 16:00:00,68.0,57.0,-100.00,South,180,7.0,-999.0,66,-99.99,,,-99.99,641.479980,,2013-05-19 21:00:00,
2013-05-19 16:43:00,68.0,57.0,-100.00,South,180,7.0,-999.0,66,-99.99,,,-99.99,641.479980,,2013-05-19 21:43:00,
2013-05-19 16:53:00,68.0,57.0,-100.00,South,180,7.0,-999.0,66,-99.99,,,-99.99,641.479980,,2013-05-19 21:53:00,
2013-05-19 17:00:00,73.0,60.0,-100.00,South,180,7.0,-999.0,63,-99.99,,,-99.99,510.399994,,2013-05-19 22:00:00,
2013-05-19 17:42:00,73.0,60.0,-100.00,South,180,7.0,-999.0,63,-99.99,,,-99.99,510.399994,,2013-05-19 22:42:00,
2013-05-19 17:53:00,73.0,60.0,-100.00,South,180,7.0,-999.0,63,-99.99,,,-99.99,510.399994,,2013-05-19 22:53:00,
2013-05-19 18:00:00,74.0,60.0,-100.00,South,180,10.0,-999.0,61,-99.99,,,-99.99,372.359985,,2013-05-19 23:00:00,
2013-05-19 18:42:00,74.0,60.0,-100.00,South,180,10.0,-999.0,61,-99.99,,,-99.99,372.359985,,2013-05-19 23:42:00,
2013-05-19 18:52:00,74.0,60.0,-100.00,South,180,10.0,-999.0,61,-99.99,,,-99.99,372.359985,,2013-05-19 23:52:00,
2013-05-19 19:00:00,73.0,61.0,-100.00,SSE,157,6.0,-999.0,65,-99.99,,,-99.99,196.039993,,2013-05-20 00:00:00,
2013-05-19 19:42:00,73.0,61.0,-100.00,SSE,157,6.0,-999.0,65,-99.99,,,-99.99,196.039993,,2013-05-20 00:42:00,
2013-05-19 19:52:00,73.0,61.0,-100.00,SSE,157,6.0,-999.0,65,-99.99,,,-99.99,196.039993,,2013-05-20 00:52:00,
2013-05-19 20:00:00,67.0,59.0,-100.00,SE,135,4.0,-999.0,75,-99.99,,,-99.99,54.520000,,2013-05-20 01:00:00,
2013-05-19 20:42:00,67.0,59.0,-100.00,SE,135,4.0,-999.0,75,-99.99,,,-99.99,54.520000,,2013-05-20 01:42:00,
2013-05-19 20:52:00,67.0,59.0,-100.00,SE,135,4.0,-999.0,75,-99.99,,,-99.99,54.520000,,2013-05-20 01:52:00,
2013-05-19 21:00:00,55.0,51.0,-100.00,ESE,112,6.0,-999.0,87,-99.99,,,-99.99,1.160000,,2013-05-20 02:00:00,
2013-05-19 21:42:00,55.0,51.0,-100.00,ESE,112,6.0,-999.0,87,-99.99,,,-99.99,1.160000,,2013-05-20 02:42:00,
2013-05-19 21:52:00,55.0,51.0,-100.00,ESE,112,6.0,-999.0,87,-99.99,,,-99.99,1.160000,,2013-05-20 02:52:00,
2013-05-19 22:00:00,53.0,50.0,-100.00,ESE,112,5.0,-999.0,90,-99.99,,,-99.99,0.000000,,2013-05-20 03:00:00,
2013-05-19 22:43:00,53.0,50.0,-100.00,ESE,112,5.0,-999.0,90,-99.99,,,-99.99,0.000000,,2013-05-20 03:43:00,
2013-05-19 22:52:00,53.0,50.0,-100.00,ESE,112,5.0,-999.0,90,-99.99,,,-99.99,0.000000,,2013-05-20 03:52:00,
2013-05-19 23:00:00,53.0,50.0,-100.00,East,90,4.0,-999.0,91,-99.99,,,-99.99,0.000000,,2013-05-20 04:00:00,
2013-05-19 23:43:00,53.0,50.0,-100.00,East,90,4.0,-999.0,91,-99.99,,,-99.99,0.000000,,2013-05-20 04:43:00,
2013-05-19 23:53:00,53.0,50.0,-100.00,East,90,4.0,-999.0,91,-99.99,,,-99.99,0.000000,,2013-05-20 04:53:00,